Time;durP1;ratioP1;P1;durP2;ratioP2;P2;SDS_P1;SDS_P2;PMS_P1;PMS_P2;Temp;Humidity;BMP_temperature;BMP_pressure;BME280_temperature;BME280_humidity;BME280_pressure;Samples;Min_cycle;Max_cycle;Signal;HPM_P1;HPM_P2
2022/01/02 00:00:13;;;;;;;8.52;3.55;;;;;;;;;;5012339;28;20022;-86
2022/01/02 00:02:41;;;;;;;6.82;3.80;;;;;;;;;;5019665;28;20038;-87
2022/01/02 00:05:16;;;;;;;6.15;3.30;;;;;;;;;;5012302;28;20026;-86
2022/01/02 00:07:56;;;;;;;9.70;3.60;;;;;;;;;;5011721;28;20048;-86
2022/01/02 00:10:22;;;;;;;7.45;3.75;;;;;;;;;;5007218;28;20417;-86
2022/01/02 00:12:57;;;;;;;6.30;3.40;;;;;;;;;;5010273;28;20034;-85
2022/01/02 00:15:22;;;;;;;7.05;3.33;;;;;;;;;;5005613;28;20021;-88
2022/01/02 00:17:53;;;;;;;7.88;3.40;;;;;;;;;;5007975;28;20032;-85
2022/01/02 00:20:32;;;;;;;8.93;4.13;;;;;;;;;;4985303;28;21266;-86
2022/01/02 00:23:05;;;;;;;7.45;3.58;;;;;;;;;;4987347;28;20606;-87
2022/01/02 00:25:38;;;;;;;8.75;4.05;;;;;;;;;;4993676;28;20434;-87
2022/01/02 00:28:05;;;;;;;5.90;3.45;;;;;;;;;;4988263;28;20033;-86
2022/01/02 00:30:33;;;;;;;7.00;3.35;;;;;;;;;;4990389;28;20034;-87
2022/01/02 00:33:00;;;;;;;8.45;3.58;;;;;;;;;;4984903;28;20091;-88
2022/01/02 00:35:26;;;;;;;7.32;3.47;;;;;;;;;;4985945;28;20037;-88
2022/01/02 00:37:51;;;;;;;7.88;3.50;;;;;;;;;;4987192;28;20413;-86
2022/01/02 00:40:16;;;;;;;9.25;3.47;;;;;;;;;;4985697;28;20069;-86
2022/01/02 00:42:43;;;;;;;6.85;3.30;;;;;;;;;;4984225;28;20031;-86
2022/01/02 00:45:33;;;;;;;8.23;3.58;;;;;;;;;;4985861;28;20585;-86
2022/01/02 00:48:08;;;;;;;7.03;3.50;;;;;;;;;;4985832;28;20033;-86
2022/01/02 00:50:38;;;;;;;7.50;3.65;;;;;;;;;;4988071;28;20462;-85
2022/01/02 00:53:05;;;;;;;8.85;3.45;;;;;;;;;;4986980;28;20030;-86
2022/01/02 00:55:34;;;;;;;7.13;3.65;;;;;;;;;;4987953;28;20030;-87
2022/01/02 00:58:05;;;;;;;6.70;3.22;;;;;;;;;;4989052;28;20109;-86
2022/01/02 01:00:31;;;;;;;7.28;3.30;;;;;;;;;;4986505;28;20023;-87
2022/01/02 01:02:59;;;;;;;7.25;3.55;;;;;;;;;;4990870;28;20105;-85
2022/01/02 01:05:33;;;;;;;8.40;3.78;;;;;;;;;;4990384;28;20022;-85
2022/01/02 01:08:01;;;;;;;8.13;3.50;;;;;;;;;;4988350;28;20070;-86
2022/01/02 01:10:29;;;;;;;8.13;3.83;;;;;;;;;;4989542;28;20089;-86
2022/01/02 01:12:57;;;;;;;9.77;3.95;;;;;;;;;;4992034;28;20030;-86
2022/01/02 01:15:26;;;;;;;6.90;3.55;;;;;;;;;;4993179;28;20580;-86
2022/01/02 01:17:53;;;;;;;7.68;3.70;;;;;;;;;;4993503;28;20482;-86
2022/01/02 01:20:19;;;;;;;8.73;3.35;;;;;;;;;;4990879;28;20027;-86
2022/01/02 01:22:48;;;;;;;8.95;3.58;;;;;;;;;;4993836;28;20045;-85
2022/01/02 01:25:18;;;;;;;6.18;3.40;;;;;;;;;;4995480;28;20493;-86
2022/01/02 01:27:45;;;;;;;9.07;3.38;;;;;;;;;;4989948;28;20064;-85
2022/01/02 01:30:11;;;;;;;11.52;3.95;;;;;;;;;;4992262;28;20022;-86
2022/01/02 01:32:36;;;;;;;6.53;3.30;;;;;;;;;;4989258;28;20076;-86
2022/01/02 01:35:03;;;;;;;9.07;3.97;;;;;;;;;;4990517;28;20042;-86
2022/01/02 01:37:29;;;;;;;8.13;3.50;;;;;;;;;;4990134;28;20065;-85
2022/01/02 01:39:54;;;;;;;7.60;3.03;;;;;;;;;;4993324;28;20108;-86
2022/01/02 01:42:36;;;;;;;7.03;3.42;;;;;;;;;;4986666;28;20123;-86
2022/01/02 01:45:28;;;;;;;7.25;3.45;;;;;;;;;;4985215;28;20085;-85
2022/01/02 01:48:02;;;;;;;7.05;3.55;;;;;;;;;;4994192;28;20479;-87
2022/01/02 01:50:31;;;;;;;8.15;3.55;;;;;;;;;;4994028;28;20030;-86
2022/01/02 01:52:56;;;;;;;8.65;3.63;;;;;;;;;;4990565;28;20022;-86
2022/01/02 01:55:22;;;;;;;8.65;3.25;;;;;;;;;;4987322;28;20049;-86
2022/01/02 01:57:47;;;;;;;10.75;3.60;;;;;;;;;;4986088;28;20015;-86
2022/01/02 02:00:16;;;;;;;10.77;3.50;;;;;;;;;;4987349;28;20037;-85
2022/01/02 02:02:42;;;;;;;8.15;3.65;;;;;;;;;;4984266;28;20030;-86
2022/01/02 02:05:08;;;;;;;8.57;3.60;;;;;;;;;;4988294;28;20026;-85
2022/01/02 02:07:41;;;;;;;8.32;3.70;;;;;;;;;;4988691;28;20969;-86
2022/01/02 02:10:17;;;;;;;7.60;3.33;;;;;;;;;;4989240;28;20129;-85
2022/01/02 02:12:46;;;;;;;8.52;3.33;;;;;;;;;;4985371;28;20038;-85
2022/01/02 02:15:13;;;;;;;8.77;3.42;;;;;;;;;;4989787;28;20019;-85
2022/01/02 02:17:39;;;;;;;7.72;3.22;;;;;;;;;;4991117;28;20027;-86
2022/01/02 02:20:12;;;;;;;7.47;3.45;;;;;;;;;;4996664;28;20387;-85
2022/01/02 02:22:40;;;;;;;;;;;;;;;;;;5001148;28;20033;-86
2022/01/02 02:25:07;;;;;;;12.40;3.40;;;;;;;;;;4998685;28;19967;-85
2022/01/02 02:27:32;;;;;;;8.55;2.95;;;;;;;;;;4987463;28;20037;-85
2022/01/02 02:29:58;;;;;;;7.75;3.03;;;;;;;;;;4992749;28;20402;-85
2022/01/02 02:32:24;;;;;;;11.32;3.08;;;;;;;;;;4996666;28;20022;-87
2022/01/02 02:34:50;;;;;;;9.18;3.70;;;;;;;;;;4994140;28;20563;-87
2022/01/02 02:37:15;;;;;;;9.52;3.67;;;;;;;;;;4990987;28;20105;-86
2022/01/02 02:39:40;;;;;;;8.05;3.55;;;;;;;;;;4991650;28;20026;-86
2022/01/02 02:42:14;;;;;;;10.27;3.38;;;;;;;;;;4987976;28;20030;-85
2022/01/02 02:44:40;;;;;;;8.60;3.58;;;;;;;;;;4990761;28;20504;-86
2022/01/02 02:49:49;;;;;;;8.68;3.30;;;;;;;;;;4990152;28;20041;-86
2022/01/02 02:52:30;;;;;;;12.05;3.58;;;;;;;;;;4989420;28;20034;-86
2022/01/02 02:54:56;;;;;;;7.45;3.17;;;;;;;;;;4988714;28;20026;-85
2022/01/02 02:57:21;;;;;;;7.95;3.50;;;;;;;;;;4992096;28;20109;-85
2022/01/02 02:59:46;;;;;;;11.73;3.15;;;;;;;;;;4989565;28;20489;-86
2022/01/02 03:02:12;;;;;;;9.38;3.10;;;;;;;;;;4988930;28;20045;-86
2022/01/02 03:04:37;;;;;;;9.15;3.20;;;;;;;;;;4988978;28;20486;-86
2022/01/02 03:07:03;;;;;;;9.10;3.40;;;;;;;;;;4988866;28;20517;-87
2022/01/02 03:11:59;;;;;;;7.88;3.22;;;;;;;;;;4991489;28;20049;-86
2022/01/02 03:14:26;;;;;;;10.45;3.10;;;;;;;;;;4985028;28;20023;-85
2022/01/02 03:16:51;;;;;;;10.57;3.00;;;;;;;;;;4991290;28;20030;-86
2022/01/02 03:19:17;;;;;;;8.57;3.08;;;;;;;;;;4987174;28;20470;-86
2022/01/02 03:21:42;;;;;;;10.65;3.03;;;;;;;;;;4989152;28;20510;-85
2022/01/02 03:24:07;;;;;;;11.52;3.53;;;;;;;;;;4988655;28;20030;-85
2022/01/02 03:26:33;;;;;;;8.55;2.75;;;;;;;;;;5005843;28;20033;-86
2022/01/02 03:28:58;;;;;;;8.90;3.17;;;;;;;;;;4991115;28;20030;-85
2022/01/02 03:31:23;;;;;;;12.32;3.95;;;;;;;;;;4989792;28;20030;-86
2022/01/02 03:33:49;;;;;;;17.50;3.50;;;;;;;;;;4985869;28;20033;-86
2022/01/02 03:36:14;;;;;;;9.43;3.05;;;;;;;;;;4997718;28;20033;-86
2022/01/02 03:38:39;;;;;;;9.55;3.30;;;;;;;;;;4994146;28;20030;-86
2022/01/02 03:41:05;;;;;;;9.52;3.03;;;;;;;;;;4989049;28;20026;-86
2022/01/02 03:43:30;;;;;;;9.15;2.85;;;;;;;;;;4991759;28;20038;-85
2022/01/02 03:45:56;;;;;;;7.20;2.80;;;;;;;;;;4988139;28;20597;-85
2022/01/02 03:48:21;;;;;;;9.85;3.00;;;;;;;;;;4985635;28;20056;-85
2022/01/02 03:50:47;;;;;;;11.23;2.90;;;;;;;;;;4988810;28;20030;-85
2022/01/02 03:53:12;;;;;;;14.32;4.32;;;;;;;;;;4989023;28;20034;-85
2022/01/02 03:55:39;;;;;;;9.05;2.95;;;;;;;;;;4988386;28;20031;-86
2022/01/02 03:58:05;;;;;;;8.07;3.00;;;;;;;;;;4987190;28;20109;-86
2022/01/02 04:00:30;;;;;;;8.75;3.33;;;;;;;;;;4985278;28;20439;-87
2022/01/02 04:02:56;;;;;;;11.13;3.13;;;;;;;;;;4994719;28;20083;-85
2022/01/02 04:05:21;;;;;;;12.30;3.42;;;;;;;;;;4990710;28;20026;-85
2022/01/02 04:07:46;;;;;;;10.35;3.38;;;;;;;;;;4988861;28;20047;-85
2022/01/02 04:10:15;;;;;;;12.18;3.50;;;;;;;;;;4989883;28;20026;-85
2022/01/02 04:12:42;;;;;;;7.55;3.03;;;;;;;;;;4987633;28;20026;-85
2022/01/02 04:15:09;;;;;;;10.43;3.92;;;;;;;;;;4987934;28;20018;-84
2022/01/02 04:17:35;;;;;;;7.82;3.17;;;;;;;;;;4984621;28;20030;-85
2022/01/02 04:20:03;;;;;;;9.23;3.72;;;;;;;;;;4983925;28;20031;-86
2022/01/02 04:22:29;;;;;;;13.05;3.45;;;;;;;;;;4989185;28;20520;-86
2022/01/02 04:24:54;;;;;;;14.10;4.25;;;;;;;;;;4993157;28;20022;-85
2022/01/02 04:27:21;;;;;;;9.95;3.75;;;;;;;;;;4988306;28;20039;-85
2022/01/02 04:29:46;;;;;;;9.05;3.60;;;;;;;;;;4989316;28;20030;-85
2022/01/02 04:32:13;;;;;;;9.52;3.53;;;;;;;;;;4988431;28;20033;-84
2022/01/02 04:34:38;;;;;;;8.45;3.40;;;;;;;;;;4986852;28;20065;-85
2022/01/02 04:37:04;;;;;;;8.82;3.33;;;;;;;;;;4989279;28;20109;-86
2022/01/02 04:39:31;;;;;;;14.82;4.15;;;;;;;;;;4989169;28;20026;-84
2022/01/02 04:41:56;;;;;;;8.88;3.45;;;;;;;;;;4987794;28;20538;-86
2022/01/02 04:44:22;;;;;;;10.15;3.45;;;;;;;;;;4985423;28;20234;-85
2022/01/02 04:46:47;;;;;;;8.20;3.00;;;;;;;;;;4987368;28;20046;-85
2022/01/02 04:49:12;;;;;;;7.97;3.60;;;;;;;;;;4988154;28;20976;-84
2022/01/02 04:51:38;;;;;;;8.52;3.20;;;;;;;;;;4988328;28;20050;-85
2022/01/02 04:54:03;;;;;;;6.95;3.03;;;;;;;;;;4990676;28;20049;-84
2022/01/02 04:56:29;;;;;;;9.45;3.58;;;;;;;;;;4992835;28;20072;-85
2022/01/02 04:58:54;;;;;;;8.35;3.50;;;;;;;;;;4987587;28;20029;-85
2022/01/02 05:01:20;;;;;;;7.88;3.15;;;;;;;;;;4997705;28;20520;-86
2022/01/02 05:03:45;;;;;;;10.30;3.40;;;;;;;;;;4994093;28;20026;-85
2022/01/02 05:06:11;;;;;;;8.38;2.90;;;;;;;;;;4989786;28;20689;-84
2022/01/02 05:08:37;;;;;;;6.85;3.05;;;;;;;;;;4993933;28;20413;-84
2022/01/02 05:11:03;;;;;;;7.30;2.97;;;;;;;;;;4995560;28;21307;-85
2022/01/02 05:13:28;;;;;;;8.52;3.00;;;;;;;;;;4990332;28;20113;-84
2022/01/02 05:15:54;;;;;;;9.75;3.33;;;;;;;;;;4990062;28;20535;-85
2022/01/02 05:18:20;;;;;;;10.18;3.20;;;;;;;;;;4993238;28;20126;-85
2022/01/02 05:20:46;;;;;;;7.40;3.30;;;;;;;;;;4990401;28;20060;-85
2022/01/02 05:23:15;;;;;;;12.57;3.83;;;;;;;;;;5001342;28;20057;-85
2022/01/02 05:25:41;;;;;;;8.60;4.15;;;;;;;;;;4988107;28;20030;-85
2022/01/02 05:28:07;;;;;;;6.72;3.13;;;;;;;;;;4990605;28;20049;-85
2022/01/02 05:30:33;;;;;;;6.97;2.85;;;;;;;;;;4988823;28;20054;-85
2022/01/02 05:32:58;;;;;;;8.20;3.28;;;;;;;;;;4989957;28;20398;-85
2022/01/02 05:35:23;;;;;;;9.30;3.30;;;;;;;;;;4993630;28;20494;-85
2022/01/02 05:37:49;;;;;;;6.47;2.95;;;;;;;;;;4991425;28;20109;-85
2022/01/02 05:40:14;;;;;;;7.63;3.05;;;;;;;;;;4993248;28;20109;-86
2022/01/02 05:42:39;;;;;;;9.35;3.28;;;;;;;;;;4993559;28;20057;-84
2022/01/02 05:45:05;;;;;;;9.85;3.30;;;;;;;;;;4989814;28;20026;-86
2022/01/02 05:47:30;;;;;;;7.75;3.25;;;;;;;;;;4991024;28;20030;-84
2022/01/02 05:49:56;;;;;;;8.52;3.13;;;;;;;;;;4991850;28;20057;-84
2022/01/02 05:52:21;;;;;;;12.57;3.70;;;;;;;;;;4988755;28;20448;-85
2022/01/02 05:54:46;;;;;;;7.68;3.00;;;;;;;;;;4994851;28;20053;-86
2022/01/02 05:57:12;;;;;;;10.75;3.08;;;;;;;;;;4990039;28;20489;-84
2022/01/02 05:59:39;;;;;;;8.95;3.40;;;;;;;;;;4993234;28;20053;-86
2022/01/02 06:02:04;;;;;;;9.07;3.50;;;;;;;;;;4990562;28;20022;-85
2022/01/02 06:04:29;;;;;;;8.32;3.45;;;;;;;;;;4991849;28;20085;-85
2022/01/02 06:06:55;;;;;;;6.10;3.05;;;;;;;;;;4991687;28;20069;-86
2022/01/02 06:09:20;;;;;;;9.55;3.15;;;;;;;;;;4991826;28;20092;-84
2022/01/02 06:11:45;;;;;;;6.25;3.30;;;;;;;;;;4988891;28;20022;-84
2022/01/02 06:14:10;;;;;;;6.65;2.90;;;;;;;;;;4987238;28;20027;-85
2022/01/02 06:16:36;;;;;;;8.52;3.55;;;;;;;;;;4994348;28;20492;-86
2022/01/02 06:19:01;;;;;;;8.68;3.22;;;;;;;;;;4989047;28;20614;-86
2022/01/02 06:21:27;;;;;;;8.80;3.00;;;;;;;;;;4992520;28;20029;-85
2022/01/02 06:23:52;;;;;;;7.32;2.95;;;;;;;;;;4990798;28;20030;-85
2022/01/02 06:26:17;;;;;;;8.88;3.10;;;;;;;;;;4991258;28;20049;-85
2022/01/02 06:28:43;;;;;;;8.13;3.22;;;;;;;;;;4990481;28;20088;-86
2022/01/02 06:31:09;;;;;;;7.22;2.65;;;;;;;;;;4990990;28;20382;-86
2022/01/02 06:33:34;;;;;;;7.32;2.60;;;;;;;;;;4986767;28;20500;-86
2022/01/02 06:36:00;;;;;;;7.55;3.08;;;;;;;;;;4994194;28;20161;-85
2022/01/02 06:38:25;;;;;;;8.52;3.08;;;;;;;;;;4989652;28;20477;-84
2022/01/02 06:40:50;;;;;;;10.20;3.40;;;;;;;;;;4990357;28;20023;-85
2022/01/02 06:43:16;;;;;;;8.43;3.70;;;;;;;;;;4989442;28;20394;-84
2022/01/02 06:45:43;;;;;;;7.38;3.03;;;;;;;;;;4988209;28;20026;-84
2022/01/02 06:48:08;;;;;;;10.20;3.47;;;;;;;;;;4994543;28;20117;-86
2022/01/02 06:50:34;;;;;;;9.20;3.15;;;;;;;;;;4991570;28;20121;-85
2022/01/02 06:52:59;;;;;;;13.05;3.35;;;;;;;;;;4990621;28;20034;-86
2022/01/02 06:55:25;;;;;;;6.57;2.78;;;;;;;;;;4990119;28;20026;-85
2022/01/02 06:57:50;;;;;;;8.50;2.83;;;;;;;;;;4999017;28;20385;-85
2022/01/02 07:00:16;;;;;;;7.72;3.03;;;;;;;;;;4992087;28;20493;-85
2022/01/02 07:02:42;;;;;;;8.35;3.15;;;;;;;;;;4993066;28;20045;-85
2022/01/02 07:05:08;;;;;;;10.82;3.70;;;;;;;;;;4998954;28;20034;-86
2022/01/02 07:07:39;;;;;;;11.23;3.17;;;;;;;;;;4990319;28;20089;-86
2022/01/02 07:10:05;;;;;;;8.98;3.78;;;;;;;;;;4991541;28;20029;-86
2022/01/02 07:12:30;;;;;;;6.28;2.60;;;;;;;;;;4985010;28;20390;-84
2022/01/02 07:14:55;;;;;;;7.38;3.13;;;;;;;;;;5001930;28;20026;-86
2022/01/02 07:17:20;;;;;;;7.53;2.97;;;;;;;;;;4989553;28;20036;-85
2022/01/02 07:19:46;;;;;;;7.82;3.22;;;;;;;;;;4992723;28;20121;-85
2022/01/02 07:22:11;;;;;;;7.57;2.92;;;;;;;;;;4990264;28;20026;-86
2022/01/02 07:24:37;;;;;;;7.90;3.25;;;;;;;;;;4982346;28;20459;-86
2022/01/02 07:27:02;;;;;;;7.13;3.05;;;;;;;;;;4987207;28;20029;-86
2022/01/02 07:29:27;;;;;;;6.65;3.10;;;;;;;;;;4987390;28;20041;-86
2022/01/02 07:31:53;;;;;;;4.97;2.95;;;;;;;;;;4991268;28;20030;-86
2022/01/02 07:34:18;;;;;;;5.85;2.80;;;;;;;;;;4984793;28;20023;-84
2022/01/02 07:36:44;;;;;;;7.90;3.00;;;;;;;;;;4988065;28;20081;-86
2022/01/02 07:39:14;;;;;;;6.90;2.63;;;;;;;;;;4987047;28;20394;-84
2022/01/02 07:41:40;;;;;;;7.68;2.95;;;;;;;;;;5004482;28;20127;-86
2022/01/02 07:44:05;;;;;;;6.10;2.70;;;;;;;;;;4989893;28;20054;-86
2022/01/02 07:46:32;;;;;;;6.65;2.90;;;;;;;;;;4987848;28;20023;-87
2022/01/02 07:48:57;;;;;;;4.93;2.80;;;;;;;;;;4993152;28;20053;-84
2022/01/02 07:51:23;;;;;;;9.00;2.90;;;;;;;;;;4995422;28;20033;-84
2022/01/02 07:53:48;;;;;;;7.13;2.90;;;;;;;;;;4989091;28;20034;-85
2022/01/02 07:56:14;;;;;;;5.50;2.58;;;;;;;;;;4989474;28;20169;-86
2022/01/02 07:58:40;;;;;;;5.63;2.85;;;;;;;;;;4995413;28;20018;-86
2022/01/02 08:01:05;;;;;;;5.60;2.75;;;;;;;;;;4989729;28;20394;-84
2022/01/02 08:03:30;;;;;;;7.00;2.70;;;;;;;;;;4993282;28;20026;-85
2022/01/02 08:05:56;;;;;;;5.50;2.38;;;;;;;;;;4989848;28;20105;-85
2022/01/02 08:08:21;;;;;;;5.55;2.40;;;;;;;;;;4988824;28;20053;-85
2022/01/02 08:10:46;;;;;;;3.80;2.30;;;;;;;;;;4991639;28;20054;-86
2022/01/02 08:13:12;;;;;;;5.53;2.72;;;;;;;;;;4986041;28;20466;-85
2022/01/02 08:15:37;;;;;;;6.85;3.03;;;;;;;;;;4988934;28;20038;-86
2022/01/02 08:18:02;;;;;;;6.80;2.75;;;;;;;;;;4985134;28;20031;-84
2022/01/02 08:20:28;;;;;;;7.25;3.00;;;;;;;;;;4987162;28;20069;-84
2022/01/02 08:22:56;;;;;;;6.25;2.47;;;;;;;;;;4990760;28;20125;-85
2022/01/02 08:25:21;;;;;;;5.45;2.90;;;;;;;;;;4988167;28;20018;-85
2022/01/02 08:27:47;;;;;;;6.25;3.00;;;;;;;;;;4989431;28;20544;-86
2022/01/02 08:30:12;;;;;;;6.22;2.97;;;;;;;;;;4988913;28;20027;-86
2022/01/02 08:32:38;;;;;;;5.03;2.50;;;;;;;;;;4990964;28;20073;-85
2022/01/02 08:35:05;;;;;;;6.93;2.63;;;;;;;;;;4985551;28;20534;-86
2022/01/02 08:37:30;;;;;;;6.60;2.30;;;;;;;;;;4988458;28;20556;-85
2022/01/02 08:39:55;;;;;;;4.22;2.35;;;;;;;;;;4984049;28;20034;-86
2022/01/02 08:42:21;;;;;;;6.20;3.13;;;;;;;;;;4987464;28;20076;-86
2022/01/02 08:44:46;;;;;;;5.93;2.70;;;;;;;;;;4984092;28;20030;-86
2022/01/02 08:47:11;;;;;;;6.35;2.83;;;;;;;;;;4994476;28;20048;-86
2022/01/02 08:49:37;;;;;;;8.05;2.80;;;;;;;;;;4982083;28;20022;-85
2022/01/02 08:52:03;;;;;;;7.85;3.38;;;;;;;;;;4977899;28;20030;-85
2022/01/02 08:54:28;;;;;;;4.93;2.88;;;;;;;;;;4982215;28;20375;-86
2022/01/02 08:56:54;;;;;;;8.93;3.10;;;;;;;;;;4979500;28;20022;-86
2022/01/02 08:59:24;;;;;;;7.57;3.38;;;;;;;;;;4981251;28;20054;-84
2022/01/02 09:01:50;;;;;;;5.45;2.70;;;;;;;;;;4977566;28;20030;-84
2022/01/02 09:04:16;;;;;;;8.15;3.17;;;;;;;;;;4987504;28;20038;-86
2022/01/02 09:06:42;;;;;;;6.28;3.30;;;;;;;;;;4982286;28;20718;-85
2022/01/02 09:09:08;;;;;;;6.43;3.08;;;;;;;;;;4982736;28;20026;-86
2022/01/02 09:11:33;;;;;;;7.55;3.20;;;;;;;;;;4967420;28;20046;-86
2022/01/02 09:14:00;;;;;;;6.97;3.05;;;;;;;;;;4967922;28;20065;-86
2022/01/02 09:16:26;;;;;;;7.47;3.10;;;;;;;;;;4969042;28;20022;-86
2022/01/02 09:18:51;;;;;;;5.65;3.40;;;;;;;;;;4969526;28;20025;-85
2022/01/02 09:21:17;;;;;;;8.38;3.30;;;;;;;;;;4972674;28;20727;-84
2022/01/02 09:23:42;;;;;;;6.85;3.13;;;;;;;;;;4964710;28;20027;-86
2022/01/02 09:26:07;;;;;;;8.15;3.30;;;;;;;;;;4988646;28;20035;-84
2022/01/02 09:28:33;;;;;;;7.50;3.30;;;;;;;;;;4973441;28;20098;-85
2022/01/02 09:30:58;;;;;;;7.68;3.67;;;;;;;;;;4971672;28;20037;-85
2022/01/02 09:33:23;;;;;;;6.50;3.33;;;;;;;;;;4973643;28;20065;-85
2022/01/02 09:35:49;;;;;;;7.03;3.65;;;;;;;;;;4971186;28;20065;-86
2022/01/02 09:38:14;;;;;;;6.97;4.00;;;;;;;;;;4970969;28;20446;-87
2022/01/02 09:40:41;;;;;;;7.93;3.92;;;;;;;;;;4966387;28;20536;-85
2022/01/02 09:43:06;;;;;;;7.15;3.80;;;;;;;;;;4968029;28;20121;-86
2022/01/02 09:45:33;;;;;;;8.05;3.83;;;;;;;;;;4975493;28;20109;-86
2022/01/02 09:48:00;;;;;;;8.05;4.38;;;;;;;;;;4989861;28;20026;-85
2022/01/02 09:50:25;;;;;;;7.80;4.18;;;;;;;;;;4972061;28;20030;-85
2022/01/02 09:52:51;;;;;;;7.55;4.20;;;;;;;;;;4971745;28;20034;-88
2022/01/02 09:55:17;;;;;;;9.35;4.43;;;;;;;;;;4974011;28;20026;-85
2022/01/02 09:57:44;;;;;;;8.07;4.30;;;;;;;;;;4966831;28;20149;-87
2022/01/02 10:00:10;;;;;;;10.73;4.70;;;;;;;;;;4969484;28;22256;-85
2022/01/02 10:02:57;;;;;;;7.05;4.25;;;;;;;;;;4972534;28;20030;-87
2022/01/02 10:05:24;;;;;;;8.77;4.60;;;;;;;;;;4986613;28;20034;-87
2022/01/02 10:07:51;;;;;;;8.85;4.72;;;;;;;;;;4990090;28;20042;-86
2022/01/02 10:10:18;;;;;;;9.60;5.00;;;;;;;;;;4978590;28;20370;-86
2022/01/02 10:12:43;;;;;;;8.57;4.82;;;;;;;;;;4975012;28;20124;-85
2022/01/02 10:15:23;;;;;;;7.90;4.43;;;;;;;;;;4967764;28;20058;-84
2022/01/02 10:18:06;;;;;;;8.77;4.90;;;;;;;;;;4985860;28;20509;-86
2022/01/02 10:20:39;;;;;;;7.18;4.30;;;;;;;;;;4971834;28;20026;-84
2022/01/02 10:23:11;;;;;;;11.05;4.88;;;;;;;;;;4966637;28;20065;-85
2022/01/02 10:25:41;;;;;;;8.10;4.75;;;;;;;;;;4966094;28;20099;-86
2022/01/02 10:28:28;;;;;;;8.43;4.60;;;;;;;;;;4972367;28;20030;-84
2022/01/02 10:31:04;;;;;;;9.48;4.85;;;;;;;;;;4988122;28;20088;-85
2022/01/02 10:34:02;;;;;;;9.45;4.50;;;;;;;;;;4972969;28;20100;-85
2022/01/02 10:36:29;;;;;;;10.00;4.57;;;;;;;;;;4967657;28;20475;-85
2022/01/02 10:39:13;;;;;;;12.13;4.88;;;;;;;;;;4991093;28;20143;-84
2022/01/02 10:41:42;;;;;;;11.25;4.55;;;;;;;;;;4992016;28;20061;-86
2022/01/02 10:44:29;;;;;;;9.23;4.53;;;;;;;;;;4975980;28;20070;-87
2022/01/02 10:47:14;;;;;;;8.55;4.43;;;;;;;;;;4973728;28;20117;-84
2022/01/02 10:50:11;;;;;;;9.23;4.90;;;;;;;;;;4973829;28;20044;-86
2022/01/02 10:52:42;;;;;;;8.77;4.13;;;;;;;;;;4992575;28;20045;-86
2022/01/02 10:55:45;;;;;;;9.05;4.28;;;;;;;;;;4994158;28;20030;-87
2022/01/02 10:58:11;;;;;;;12.67;4.60;;;;;;;;;;4973083;28;20154;-85
2022/01/02 11:00:40;;;;;;;9.40;4.53;;;;;;;;;;4990117;28;20347;-85
2022/01/02 11:03:06;;;;;;;8.48;4.55;;;;;;;;;;4972368;28;20026;-86
2022/01/02 11:05:39;;;;;;;10.25;5.03;;;;;;;;;;4971386;28;20030;-84
2022/01/02 11:08:14;;;;;;;9.25;4.03;;;;;;;;;;4976253;28;20582;-87
2022/01/02 11:10:44;;;;;;;11.20;4.20;;;;;;;;;;4990453;28;20033;-85
2022/01/02 11:13:12;;;;;;;10.73;3.95;;;;;;;;;;4991849;28;20026;-85
2022/01/02 11:15:43;;;;;;;7.45;3.97;;;;;;;;;;4989134;28;20035;-86
2022/01/02 11:18:15;;;;;;;11.38;4.22;;;;;;;;;;4989470;28;20026;-84
2022/01/02 11:20:52;;;;;;;11.55;4.55;;;;;;;;;;4993434;28;20390;-86
2022/01/02 11:23:24;;;;;;;13.73;4.30;;;;;;;;;;5006906;28;20113;-86
2022/01/02 11:26:05;;;;;;;11.05;4.10;;;;;;;;;;4986063;28;20045;-83
2022/01/02 11:28:47;;;;;;;10.93;4.03;;;;;;;;;;4995181;28;20035;-85
2022/01/02 11:31:34;;;;;;;7.28;4.00;;;;;;;;;;5004834;28;20022;-84
2022/01/02 11:34:23;;;;;;;8.40;4.03;;;;;;;;;;4988907;28;20045;-85
2022/01/02 11:36:49;;;;;;;8.70;4.10;;;;;;;;;;4989918;28;20038;-83
2022/01/02 11:39:14;;;;;;;9.25;4.38;;;;;;;;;;4988634;28;20077;-85
2022/01/02 11:41:40;;;;;;;9.85;5.13;;;;;;;;;;5001671;28;20541;-84
2022/01/02 11:44:22;;;;;;;10.57;4.22;;;;;;;;;;4989722;28;20092;-86
2022/01/02 11:46:58;;;;;;;11.67;4.00;;;;;;;;;;4989036;28;20054;-85
2022/01/02 11:49:53;;;;;;;10.10;4.45;;;;;;;;;;4991651;28;20073;-86
2022/01/02 11:52:22;;;;;;;11.82;4.57;;;;;;;;;;4978538;28;20041;-84
2022/01/02 11:54:52;;;;;;;11.45;4.68;;;;;;;;;;4991901;28;20490;-86
2022/01/02 11:57:44;;;;;;;9.88;4.25;;;;;;;;;;4991105;28;20030;-85
2022/01/02 12:00:18;;;;;;;10.90;4.65;;;;;;;;;;4988527;28;20041;-86
2022/01/02 12:02:43;;;;;;;10.25;4.45;;;;;;;;;;4995492;28;20470;-84
2022/01/02 12:05:12;;;;;;;7.60;4.00;;;;;;;;;;4992264;28;20026;-84
2022/01/02 12:07:50;;;;;;;9.85;3.80;;;;;;;;;;4985527;28;20090;-84
2022/01/02 12:10:16;;;;;;;8.95;4.20;;;;;;;;;;5005790;28;20084;-87
2022/01/02 12:12:59;;;;;;;10.82;3.97;;;;;;;;;;4990894;28;20118;-84
2022/01/02 12:15:33;;;;;;;9.93;4.45;;;;;;;;;;5005751;28;20061;-85
2022/01/02 12:18:23;;;;;;;10.48;4.07;;;;;;;;;;4989044;28;20026;-87
2022/01/02 12:23:42;;;;;;;11.52;4.10;;;;;;;;;;4985493;28;20037;-84
2022/01/02 12:26:35;;;;;;;11.52;5.47;;;;;;;;;;4985391;28;22023;-84
2022/01/02 12:29:12;;;;;;;8.23;4.25;;;;;;;;;;4991936;28;20119;-84
2022/01/02 12:31:56;;;;;;;8.90;4.05;;;;;;;;;;4992037;28;20046;-84
2022/01/02 12:34:27;;;;;;;11.98;4.32;;;;;;;;;;4991759;28;20026;-85
2022/01/02 12:37:00;;;;;;;10.63;4.35;;;;;;;;;;4988504;28;20031;-84
2022/01/02 12:39:32;;;;;;;8.38;4.65;;;;;;;;;;4989220;28;20033;-87
2022/01/02 12:42:31;;;;;;;10.93;4.38;;;;;;;;;;4988861;28;20048;-86
2022/01/02 12:45:03;;;;;;;10.43;4.38;;;;;;;;;;4992235;28;20499;-84
2022/01/02 12:47:29;;;;;;;10.80;4.13;;;;;;;;;;4984424;28;20041;-84
2022/01/02 12:50:01;;;;;;;11.18;4.35;;;;;;;;;;4980657;28;20027;-84
2022/01/02 12:52:27;;;;;;;11.32;4.50;;;;;;;;;;4988862;28;20172;-84
2022/01/02 12:54:55;;;;;;;11.85;3.83;;;;;;;;;;4990434;28;20501;-84
2022/01/02 12:57:29;;;;;;;9.57;4.43;;;;;;;;;;4967841;28;20047;-84
2022/01/02 13:00:00;;;;;;;10.27;4.15;;;;;;;;;;4980719;28;20026;-85
2022/01/02 13:02:35;;;;;;;10.38;3.58;;;;;;;;;;4983711;28;20030;-86
2022/01/02 13:05:03;;;;;;;11.02;3.90;;;;;;;;;;4989292;28;20398;-85
2022/01/02 13:07:37;;;;;;;8.95;3.92;;;;;;;;;;4989560;28;20609;-85
2022/01/02 13:10:13;;;;;;;12.75;4.43;;;;;;;;;;4987377;28;20034;-85
2022/01/02 13:12:51;;;;;;;;;;;;;;;;;;;;;
2022/01/02 13:15:34;;;;;;;8.50;3.35;;;;;;;;;;4992479;28;20030;-84
2022/01/02 13:18:08;;;;;;;10.18;3.10;;;;;;;;;;4987790;28;20018;-85
2022/01/02 13:20:43;;;;;;;8.02;3.25;;;;;;;;;;5004528;28;20030;-85
2022/01/02 13:23:09;;;;;;;8.30;3.10;;;;;;;;;;4991008;28;20030;-87
2022/01/02 13:25:40;;;;;;;15.15;3.95;;;;;;;;;;4985953;28;20041;-85
2022/01/02 13:28:38;;;;;;;10.52;3.60;;;;;;;;;;4984804;28;20027;-86
2022/01/02 13:31:08;;;;;;;7.65;3.08;;;;;;;;;;4912872;29;20059;-86
2022/01/02 13:33:43;;;;;;;13.85;3.67;;;;;;;;;;4921900;28;20076;-85
2022/01/02 13:36:23;;;;;;;;;;;;;;;;;;;;;
2022/01/02 13:39:36;;;;;;;7.63;3.20;;;;;;;;;;4987518;28;20042;-85
2022/01/02 13:42:13;;;;;;;9.07;3.40;;;;;;;;;;4984973;28;20039;-85
2022/01/02 13:44:44;;;;;;;13.32;3.30;;;;;;;;;;4985956;28;20041;-86
2022/01/02 13:47:11;;;;;;;12.98;3.28;;;;;;;;;;4968781;28;20409;-86
2022/01/02 13:49:41;;;;;;;12.77;3.40;;;;;;;;;;4988999;28;20109;-86
2022/01/02 13:52:08;;;;;;;10.10;3.35;;;;;;;;;;5004332;28;20108;-86
2022/01/02 13:54:40;;;;;;;8.93;3.20;;;;;;;;;;4985745;28;20088;-84
2022/01/02 13:57:10;;;;;;;12.32;3.00;;;;;;;;;;4993611;28;20065;-87
2022/01/02 13:59:39;;;;;;;14.07;3.13;;;;;;;;;;4986420;28;20049;-87
2022/01/02 14:02:11;;;;;;;8.27;2.90;;;;;;;;;;4987704;28;20110;-88
2022/01/02 14:05:12;;;;;;;9.73;2.70;;;;;;;;;;4991332;28;20786;-87
2022/01/02 14:07:42;;;;;;;12.05;3.13;;;;;;;;;;4989952;28;20097;-86
2022/01/02 14:10:10;;;;;;;9.93;2.97;;;;;;;;;;4984158;28;20058;-85
2022/01/02 14:12:40;;;;;;;11.05;3.10;;;;;;;;;;4981951;28;20026;-87
2022/01/02 14:15:21;;;;;;;12.98;3.28;;;;;;;;;;4987208;28;20097;-86
2022/01/02 14:17:49;;;;;;;11.25;3.08;;;;;;;;;;4984326;28;20030;-85
2022/01/02 14:20:29;;;;;;;15.40;3.17;;;;;;;;;;4987995;28;20117;-85
2022/01/02 14:23:05;;;;;;;;;;;;;;;;;;;;;
2022/01/02 14:25:48;;;;;;;12.68;3.20;;;;;;;;;;4993425;28;20544;-84
2022/01/02 14:28:16;;;;;;;16.38;3.33;;;;;;;;;;4988455;28;20026;-85
2022/01/02 14:30:44;;;;;;;14.00;3.75;;;;;;;;;;4988733;28;20038;-85
2022/01/02 14:33:16;;;;;;;12.63;3.45;;;;;;;;;;4987609;28;20042;-87
2022/01/02 14:35:45;;;;;;;15.43;3.30;;;;;;;;;;4989727;28;20592;-87
2022/01/02 14:38:16;;;;;;;10.60;3.78;;;;;;;;;;4985934;28;20723;-85
2022/01/02 14:40:48;;;;;;;13.10;3.20;;;;;;;;;;4986350;28;20042;-85
2022/01/02 14:43:14;;;;;;;13.05;3.40;;;;;;;;;;4983999;28;20601;-85
2022/01/02 14:45:40;;;;;;;16.67;3.28;;;;;;;;;;4985877;28;20049;-85
2022/01/02 14:48:09;;;;;;;17.58;2.97;;;;;;;;;;4984257;28;20034;-87
2022/01/02 14:50:37;;;;;;;9.98;3.05;;;;;;;;;;4986581;28;20129;-86
2022/01/02 14:53:05;;;;;;;17.20;3.20;;;;;;;;;;4986044;28;20027;-85
2022/01/02 14:55:33;;;;;;;18.38;3.15;;;;;;;;;;4986538;28;20030;-85
2022/01/02 14:57:59;;;;;;;13.35;2.72;;;;;;;;;;4985613;28;20045;-88
2022/01/02 15:00:25;;;;;;;14.55;2.70;;;;;;;;;;4987404;28;20478;-86
2022/01/02 15:02:51;;;;;;;18.45;3.10;;;;;;;;;;4987606;28;20030;-85